Time;durP1;ratioP1;P1;durP2;ratioP2;P2;SDS_P1;SDS_P2;PMS_P1;PMS_P2;Temp;Humidity;BMP_temperature;BMP_pressure;BME280_temperature;BME280_humidity;BME280_pressure;Samples;Min_cycle;Max_cycle;Signal;HPM_P1;HPM_P2
2021/04/13 00:01:26;;;;;;;7.23;6.53;;;;;;;0.65;94.12;96518.84;5053017;28;20702;-69
2021/04/13 00:03:57;;;;;;;7.43;6.83;;;;;;;0.65;94.23;96509.28;5061748;28;20316;-68
2021/04/13 00:06:28;;;;;;;5.97;5.57;;;;;;;0.64;94.87;96522.34;5051642;28;20706;-69
2021/04/13 00:09:01;;;;;;;7.53;6.73;;;;;;;0.63;95.14;96508.53;5049120;28;20248;-69
2021/04/13 00:11:29;;;;;;;8.17;7.47;;;;;;;0.62;94.56;96508.66;5048440;28;20242;-69
2021/04/13 00:13:59;;;;;;;7.53;6.73;;;;;;;0.68;95.29;96518.63;5054248;28;20772;-70
2021/04/13 00:16:30;;;;;;;7.47;6.77;;;;;;;0.63;95.07;96516.34;5048186;28;20253;-70
2021/04/13 00:18:58;;;;;;;6.67;6.07;;;;;;;0.59;94.89;96525.28;5058151;28;20231;-69
2021/04/13 00:21:29;;;;;;;6.90;6.37;;;;;;;0.58;94.82;96523.63;5046974;28;20317;-68
2021/04/13 00:23:59;;;;;;;8.47;7.70;;;;;;;0.55;95.22;96519.47;5050310;28;20234;-69
2021/04/13 00:26:28;;;;;;;7.47;6.67;;;;;;;0.48;95.66;96527.75;5063748;28;20232;-69
2021/04/13 00:28:57;;;;;;;6.93;6.33;;;;;;;0.41;96.00;96526.47;5050526;28;20249;-69
2021/04/13 00:31:41;;;;;;;6.53;6.03;;;;;;;0.39;96.04;96533.56;5060225;28;20343;-69
2021/04/13 00:34:13;;;;;;;6.80;6.20;;;;;;;0.38;97.14;96517.13;5059718;28;20232;-70
2021/04/13 00:36:41;;;;;;;7.17;6.60;;;;;;;0.40;96.90;96524.81;5050100;28;20214;-69
2021/04/13 00:39:17;;;;;;;7.00;6.40;;;;;;;0.38;96.91;96534.47;5064693;28;20229;-69
2021/04/13 00:41:54;;;;;;;7.60;7.00;;;;;;;0.45;97.37;96527.94;5058394;28;20232;-69
2021/04/13 00:44:22;;;;;;;6.70;6.10;;;;;;;0.46;96.66;96529.63;5061187;28;20228;-69
2021/04/13 00:46:56;;;;;;;8.13;6.57;;;;;;;0.50;97.51;96531.06;5050234;28;20222;-70
2021/04/13 00:49:27;;;;;;;8.87;8.07;;;;;;;0.57;97.53;96527.16;5065164;28;20225;-69
2021/04/13 00:51:57;;;;;;;7.17;6.43;;;;;;;0.59;96.89;96530.47;5058661;28;20323;-69
2021/04/13 00:54:30;;;;;;;7.23;6.63;;;;;;;0.66;96.13;96534.34;5058453;28;20313;-69
2021/04/13 00:57:03;;;;;;;7.63;7.00;;;;;;;0.59;96.07;96530.47;5060280;28;20226;-69
2021/04/13 00:59:31;;;;;;;6.50;5.90;;;;;;;0.53;95.52;96525.66;5059318;28;20242;-68
2021/04/13 01:02:03;;;;;;;8.07;7.37;;;;;;;0.47;96.21;96533.88;5062903;28;20583;-69
2021/04/13 01:04:34;;;;;;;8.10;7.37;;;;;;;0.46;95.80;96525.25;5062935;28;20222;-70
2021/04/13 01:07:09;;;;;;;8.17;6.93;;;;;;;0.40;95.91;96527.41;5045717;28;20756;-69
2021/04/13 01:09:43;;;;;;;6.50;5.87;;;;;;;0.50;95.93;96523.28;5051566;28;20245;-70
2021/04/13 01:12:20;;;;;;;7.50;7.00;;;;;;;0.46;95.82;96534.81;5051869;28;20326;-71
2021/04/13 01:14:49;;;;;;;8.07;7.27;;;;;;;0.42;96.05;96523.78;5053957;28;20316;-68
2021/04/13 01:17:17;;;;;;;6.43;5.87;;;;;;;0.39;95.73;96528.34;5045801;28;20240;-69
2021/04/13 01:19:53;;;;;;;9.90;8.97;;;;;;;0.35;96.56;96527.69;5050304;28;20218;-69
2021/04/13 01:22:29;;;;;;;7.87;7.00;;;;;;;0.32;96.91;96530.50;5055774;28;20222;-70
2021/04/13 01:24:59;;;;;;;8.07;7.37;;;;;;;0.36;96.71;96533.72;5057562;28;20809;-69
2021/04/13 01:27:26;;;;;;;8.83;7.97;;;;;;;0.33;96.71;96533.94;5054574;28;20280;-70
2021/04/13 01:29:55;;;;;;;8.13;7.33;;;;;;;0.32;96.36;96527.09;5052114;28;20308;-69
2021/04/13 01:32:25;;;;;;;7.80;7.20;;;;;;;0.35;97.05;96529.47;5052630;28;20356;-69
2021/04/13 01:35:03;;;;;;;7.43;6.73;;;;;;;0.31;96.88;96528.03;5053273;28;20246;-69
2021/04/13 01:37:41;;;;;;;8.17;7.37;;;;;;;0.32;97.12;96527.91;5055479;28;20237;-69
2021/04/13 01:40:19;;;;;;;8.17;7.53;;;;;;;0.35;97.04;96532.06;5059153;28;20304;-70
2021/04/13 01:42:48;;;;;;;6.80;6.20;;;;;;;0.45;96.48;96535.72;5056174;28;20737;-68
2021/04/13 01:45:20;;;;;;;7.27;6.47;;;;;;;0.40;96.19;96535.22;5063513;28;20256;-68
2021/04/13 01:47:48;;;;;;;10.97;8.47;;;;;;;0.38;96.60;96537.09;5059877;28;20241;-69
2021/04/13 01:50:18;;;;;;;9.80;8.43;;;;;;;0.33;96.52;96533.94;5049932;28;20751;-69
2021/04/13 01:52:48;;;;;;;8.67;7.87;;;;;;;0.31;97.31;96535.81;5056521;28;20279;-70
2021/04/13 01:55:20;;;;;;;11.17;8.83;;;;;;;0.31;97.38;96533.22;5055517;28;20246;-69
2021/04/13 01:57:54;;;;;;;7.87;7.10;;;;;;;0.32;97.42;96527.91;5054940;28;20226;-69
2021/04/13 02:00:28;;;;;;;8.90;8.07;;;;;;;0.28;97.74;96532.47;5043916;28;20303;-69
2021/04/13 02:03:07;;;;;;;7.37;6.63;;;;;;;0.28;97.57;96536.84;5043318;28;20627;-68
2021/04/13 02:05:38;;;;;;;8.53;7.63;;;;;;;0.26;98.07;96534.31;5044828;28;20246;-69
2021/04/13 02:08:11;;;;;;;7.57;6.43;;;;;;;0.28;97.93;96536.84;5051296;28;20816;-69
2021/04/13 02:10:44;;;;;;;6.70;6.10;;;;;;;0.31;97.91;96535.81;5052111;28;20693;-68
2021/04/13 02:13:15;;;;;;;8.33;7.57;;;;;;;0.37;97.82;96538.00;5048920;28;20222;-68
2021/04/13 02:15:54;;;;;;;8.87;8.07;;;;;;;0.52;97.25;96540.41;5050025;28;20222;-69
2021/04/13 02:18:28;;;;;;;8.93;8.10;;;;;;;0.47;96.93;96541.69;5061981;28;20225;-69
2021/04/13 02:20:55;;;;;;;7.10;6.50;;;;;;;0.46;96.11;96545.22;5056400;28;20715;-69
2021/04/13 02:23:26;;;;;;;7.53;6.87;;;;;;;0.51;96.83;96536.16;5049189;28;20324;-69
2021/04/13 02:25:54;;;;;;;7.90;7.20;;;;;;;0.46;95.92;96540.00;5054419;28;20715;-69
2021/04/13 02:28:22;;;;;;;8.63;7.77;;;;;;;0.38;96.56;96537.91;5059611;28;20935;-69
2021/04/13 02:30:50;;;;;;;8.00;7.27;;;;;;;0.46;96.84;96540.00;5062232;28;20225;-69
2021/04/13 02:33:32;;;;;;;10.03;9.13;;;;;;;0.43;96.69;96546.22;5050421;28;20210;-69
2021/04/13 02:36:10;;;;;;;8.27;7.47;;;;;;;0.41;96.96;96536.88;5046690;28;20234;-69
2021/04/13 02:38:38;;;;;;;9.23;8.40;;;;;;;0.43;96.44;96537.59;5054672;28;20294;-69
2021/04/13 02:41:14;;;;;;;8.40;7.60;;;;;;;0.39;97.52;96534.38;5050995;28;20396;-69
2021/04/13 02:43:46;;;;;;;11.57;10.40;;;;;;;0.41;97.51;96539.47;5056066;28;20252;-69
2021/04/13 02:46:16;;;;;;;8.83;7.90;;;;;;;0.40;96.97;96530.03;5063184;28;20310;-70
2021/04/13 02:48:52;;;;;;;9.53;8.73;;;;;;;0.33;96.73;96534.78;5060462;28;20300;-70
2021/04/13 02:51:21;;;;;;;9.20;8.33;;;;;;;0.34;97.51;96535.59;5052292;28;20229;-70
2021/04/13 02:53:53;;;;;;;9.67;8.87;;;;;;;0.34;97.89;96538.19;5063131;28;20229;-69
2021/04/13 02:56:23;;;;;;;9.83;9.00;;;;;;;0.34;97.47;96530.41;5059123;28;20313;-69
2021/04/13 02:59:01;;;;;;;10.87;9.73;;;;;;;0.30;97.86;96528.94;5060887;28;20635;-69
2021/04/13 03:01:28;;;;;;;10.63;9.60;;;;;;;0.30;97.50;96526.34;5052262;28;20271;-69
2021/04/13 03:04:01;;;;;;;8.53;7.53;;;;;;;0.33;97.99;96529.56;5056514;28;20218;-69
2021/04/13 03:06:29;;;;;;;9.63;8.67;;;;;;;0.23;97.36;96526.75;5052446;28;20302;-69
2021/04/13 03:08:56;;;;;;;10.53;9.73;;;;;;;0.19;97.33;96527.06;5051872;28;20334;-69
2021/04/13 03:11:26;;;;;;;8.33;7.73;;;;;;;0.17;97.83;96529.72;5042435;28;20254;-69
2021/04/13 03:13:54;;;;;;;9.90;8.93;;;;;;;0.13;97.79;96541.25;5044524;28;20280;-70
2021/04/13 03:16:32;;;;;;;9.83;8.83;;;;;;;0.18;98.17;96533.16;5050388;28;20883;-70
2021/04/13 03:19:01;;;;;;;10.10;9.00;;;;;;;0.12;97.82;96529.22;5051317;28;20267;-69
2021/04/13 03:21:32;;;;;;;8.90;8.07;;;;;;;0.09;98.10;96536.34;5047861;28;20286;-70
2021/04/13 03:24:02;;;;;;;8.90;7.37;;;;;;;0.11;98.23;96524.94;5062141;28;20222;-70
2021/04/13 03:26:33;;;;;;;12.57;11.30;;;;;;;0.03;98.36;96532.41;5048532;28;20259;-69
2021/04/13 03:29:04;;;;;;;12.47;10.13;;;;;;;-0.05;97.81;96526.84;5061998;28;20222;-69
2021/04/13 03:31:33;;;;;;;10.37;9.43;;;;;;;-0.15;98.52;96518.81;5058164;28;20234;-69
2021/04/13 03:34:04;;;;;;;12.03;10.70;;;;;;;-0.17;98.82;96519.88;5054935;28;20284;-69
2021/04/13 03:36:31;;;;;;;11.77;10.57;;;;;;;-0.35;98.47;96525.28;5045923;28;21017;-70
2021/04/13 03:39:01;;;;;;;17.07;12.47;;;;;;;-0.34;99.00;96519.16;5042105;28;20232;-70
2021/04/13 03:41:34;;;;;;;11.10;10.10;;;;;;;-0.34;99.46;96526.94;5041843;28;20306;-70
2021/04/13 03:44:06;;;;;;;10.83;9.90;;;;;;;-0.33;98.87;96519.97;5047130;28;20700;-69
2021/04/13 03:46:37;;;;;;;11.93;10.83;;;;;;;-0.30;98.74;96525.78;5044031;28;20228;-71
2021/04/13 03:49:09;;;;;;;12.03;10.83;;;;;;;-0.28;99.50;96530.88;5043836;28;20687;-69
2021/04/13 03:51:41;;;;;;;13.20;10.80;;;;;;;-0.25;99.26;96522.94;5047031;28;20228;-70
2021/04/13 03:54:26;;;;;;;12.53;11.23;;;;;;;-0.21;98.56;96528.75;5056965;28;20573;-69
2021/04/13 03:56:53;;;;;;;11.70;10.60;;;;;;;-0.17;98.68;96519.88;5058045;28;20230;-70
2021/04/13 03:59:22;;;;;;;12.67;11.37;;;;;;;-0.17;98.53;96532.84;5057559;28;20280;-69
2021/04/13 04:01:51;;;;;;;8.77;8.07;;;;;;;-0.23;98.62;96531.44;5056156;28;20353;-70
2021/04/13 04:04:29;;;;;;;11.43;10.43;;;;;;;-0.30;98.00;96530.97;5049529;28;20842;-68
2021/04/13 04:06:58;;;;;;;11.20;10.10;;;;;;;-0.38;98.54;96522.84;5051874;28;20895;-70
2021/04/13 04:09:38;;;;;;;11.60;10.40;;;;;;;-0.40;98.34;96529.06;5057512;28;20746;-70
2021/04/13 04:12:19;;;;;;;10.70;9.70;;;;;;;-0.46;99.21;96534.63;5046588;28;20228;-70
2021/04/13 04:15:11;;;;;;;11.10;10.03;;;;;;;-0.46;99.35;96535.44;5047849;28;20700;-68
2021/04/13 04:17:47;;;;;;;10.90;9.90;;;;;;;-0.52;99.25;96541.03;5043606;28;20613;-68
2021/04/13 04:20:16;;;;;;;11.53;10.30;;;;;;;-0.55;99.02;96546.38;5050135;28;20227;-68
2021/04/13 04:22:49;;;;;;;11.67;10.40;;;;;;;-0.59;99.28;96540.56;5047289;28;20748;-66
2021/04/13 04:25:21;;;;;;;12.53;11.40;;;;;;;-0.51;99.79;96547.06;5052755;28;20275;-68
2021/04/13 04:27:55;;;;;;;11.67;10.67;;;;;;;-0.49;99.56;96553.81;5043806;28;20960;-68
2021/04/13 04:30:27;;;;;;;13.07;10.47;;;;;;;-0.48;99.58;96552.88;5053675;28;20595;-68
2021/04/13 04:32:56;;;;;;;11.33;10.10;;;;;;;-0.46;98.98;96556.19;5062642;28;20310;-67
2021/04/13 04:35:39;;;;;;;11.00;9.93;;;;;;;-0.45;99.14;96550.13;5063211;28;20220;-68
2021/04/13 04:38:24;;;;;;;11.63;10.40;;;;;;;-0.44;98.84;96553.53;5056652;28;20689;-68
2021/04/13 04:40:54;;;;;;;10.13;9.13;;;;;;;-0.46;98.38;96551.00;5048607;28;20228;-68
2021/04/13 04:43:41;;;;;;;13.00;11.80;;;;;;;-0.51;97.96;96558.25;5049772;28;20758;-68
2021/04/13 04:46:08;;;;;;;16.30;12.73;;;;;;;-0.55;98.37;96554.16;5053059;28;20564;-67
2021/04/13 04:48:36;;;;;;;11.13;9.67;;;;;;;-0.57;98.60;96553.44;5058781;28;20258;-68
2021/04/13 04:51:07;;;;;;;11.63;10.53;;;;;;;-0.59;98.45;96555.28;5052652;28;20346;-68
2021/04/13 04:53:35;;;;;;;10.43;9.53;;;;;;;-0.57;98.69;96569.81;5059494;28;20327;-67
2021/04/13 04:56:05;;;;;;;13.53;12.33;;;;;;;-0.53;98.87;96570.47;5052408;28;20584;-68
2021/04/13 04:58:33;;;;;;;16.30;14.80;;;;;;;-0.52;99.02;96566.13;5058303;28;20221;-68
2021/04/13 05:01:00;;;;;;;15.00;13.63;;;;;;;-0.55;98.72;96568.88;5049699;28;20244;-67
2021/04/13 05:03:28;;;;;;;13.10;11.77;;;;;;;-0.56;98.69;96570.66;5052210;28;20270;-68
2021/04/13 05:05:56;;;;;;;14.53;11.77;;;;;;;-0.58;98.56;96578.53;5055783;28;20213;-66
2021/04/13 05:08:25;;;;;;;12.37;11.10;;;;;;;-0.51;98.43;96571.22;5052248;28;20226;-69
2021/04/13 05:10:53;;;;;;;11.33;10.03;;;;;;;-0.48;98.58;96572.78;5057077;28;20845;-67
2021/04/13 05:13:21;;;;;;;12.93;11.63;;;;;;;-0.51;98.56;96576.41;5050044;28;20560;-68
2021/04/13 05:15:48;;;;;;;9.87;8.80;;;;;;;-0.47;98.07;96590.84;5049867;28;20245;-66
2021/04/13 05:18:15;;;;;;;11.70;10.70;;;;;;;-0.45;98.48;96585.56;5052081;28;20303;-68
2021/04/13 05:20:43;;;;;;;10.20;9.20;;;;;;;-0.42;97.91;96596.59;5052596;28;20643;-68
2021/04/13 05:23:10;;;;;;;12.57;11.37;;;;;;;-0.40;98.32;96597.31;5054895;28;21095;-67
2021/04/13 05:25:38;;;;;;;12.33;11.07;;;;;;;-0.37;98.44;96606.66;5042928;28;20238;-68
2021/04/13 05:28:05;;;;;;;12.53;11.37;;;;;;;-0.39;97.76;96603.34;5038074;28;20309;-67
2021/04/13 05:30:33;;;;;;;10.73;9.73;;;;;;;-0.37;98.01;96601.47;5052877;28;20806;-67
2021/04/13 05:33:00;;;;;;;11.13;10.17;;;;;;;-0.34;98.36;96604.72;5054098;28;20311;-69
2021/04/13 05:35:27;;;;;;;10.70;9.60;;;;;;;-0.35;98.19;96605.66;5051637;28;20283;-67
2021/04/13 05:37:56;;;;;;;9.80;8.90;;;;;;;-0.28;98.00;96606.09;5052750;28;20644;-68
2021/04/13 05:40:26;;;;;;;11.30;10.23;;;;;;;-0.25;98.02;96615.47;5053069;28;20358;-68
2021/04/13 05:42:56;;;;;;;10.90;9.80;;;;;;;-0.18;98.13;96608.94;5049898;28;20221;-68
2021/04/13 05:45:26;;;;;;;10.23;9.23;;;;;;;-0.17;97.35;96613.25;5044053;28;20751;-69
2021/04/13 05:47:52;;;;;;;11.53;10.30;;;;;;;-0.20;96.70;96610.81;5048814;28;20797;-68
2021/04/13 05:50:22;;;;;;;12.03;10.10;;;;;;;-0.22;97.45;96610.09;5051646;28;20222;-67
2021/04/13 05:52:49;;;;;;;10.47;9.50;;;;;;;-0.26;96.52;96611.22;5050253;28;20294;-67
2021/04/13 05:55:17;;;;;;;11.03;10.03;;;;;;;-0.18;96.62;96611.53;5051285;28;20225;-68
2021/04/13 05:57:46;;;;;;;11.00;9.57;;;;;;;-0.22;96.55;96610.09;5049900;28;20987;-68
2021/04/13 06:00:17;;;;;;;11.03;9.93;;;;;;;-0.18;96.45;96621.94;5051161;28;20803;-68
2021/04/13 06:02:45;;;;;;;11.87;10.70;;;;;;;-0.19;96.47;96620.25;5058673;28;20293;-69
2021/04/13 06:05:14;;;;;;;10.73;9.73;;;;;;;-0.19;96.71;96625.44;5051931;28;20228;-67
2021/04/13 06:07:44;;;;;;;14.00;10.87;;;;;;;-0.17;96.95;96621.03;5050020;28;20234;-68
2021/04/13 06:10:13;;;;;;;9.87;8.87;;;;;;;-0.09;96.24;96622.22;5058483;28;20331;-67
2021/04/13 06:12:40;;;;;;;12.20;9.67;;;;;;;-0.09;96.17;96622.22;5057649;28;20265;-68
2021/04/13 06:15:12;;;;;;;10.43;9.37;;;;;;;-0.10;96.05;96620.53;5050111;28;20847;-68
2021/04/13 06:17:40;;;;;;;10.10;9.07;;;;;;;-0.05;96.02;96628.88;5049558;28;20328;-68
2021/04/13 06:20:08;;;;;;;10.30;9.27;;;;;;;-0.01;95.87;96625.16;5053684;28;20221;-68
2021/04/13 06:22:35;;;;;;;8.10;7.37;;;;;;;0.00;95.69;96631.19;5048725;28;20312;-68
2021/04/13 06:25:03;;;;;;;10.67;9.63;;;;;;;0.08;96.01;96634.13;5051907;28;20254;-67
2021/04/13 06:27:29;;;;;;;11.07;9.97;;;;;;;0.16;95.22;96637.06;5047291;28;20686;-68
2021/04/13 06:29:56;;;;;;;10.73;9.63;;;;;;;0.32;95.23;96633.53;5049827;28;20328;-67
2021/04/13 06:32:24;;;;;;;10.13;8.77;;;;;;;0.44;95.44;96627.53;5049970;28;20227;-68
2021/04/13 06:34:52;;;;;;;10.17;9.27;;;;;;;0.57;94.87;96631.03;5045862;28;20577;-68
2021/04/13 06:37:19;;;;;;;9.53;8.63;;;;;;;0.68;94.44;96628.56;5044190;28;20221;-68
2021/04/13 06:39:46;;;;;;;9.93;9.03;;;;;;;0.89;93.94;96626.31;5047768;28;20296;-69
2021/04/13 06:42:31;;;;;;;9.90;8.90;;;;;;;1.03;92.24;96625.44;5048414;28;20233;-69
2021/04/13 06:45:09;;;;;;;8.97;7.93;;;;;;;1.02;91.43;96639.38;5045752;28;20225;-68
2021/04/13 06:47:52;;;;;;;9.03;8.17;;;;;;;1.12;91.76;96632.63;5042966;28;20237;-68
2021/04/13 06:50:30;;;;;;;10.07;9.13;;;;;;;1.22;91.61;96630.25;5052599;28;20245;-68
2021/04/13 06:53:14;;;;;;;9.50;7.83;;;;;;;1.46;91.23;96627.72;5047106;28;20265;-68
2021/04/13 06:56:16;;;;;;;9.57;8.67;;;;;;;1.57;91.50;96638.25;5044638;28;20240;-69
2021/04/13 06:59:02;;;;;;;10.13;9.13;;;;;;;1.87;90.55;96624.91;5047673;28;20660;-68
2021/04/13 07:01:32;;;;;;;8.07;7.27;;;;;;;2.03;89.84;96625.50;5052787;28;20293;-68
2021/04/13 07:04:05;;;;;;;8.37;7.63;;;;;;;2.01;90.25;96622.16;5051415;28;20229;-68
2021/04/13 07:06:38;;;;;;;10.37;9.00;;;;;;;2.11;88.92;96631.00;5049168;28;20221;-68
2021/04/13 07:09:14;;;;;;;7.60;6.50;;;;;;;2.17;88.42;96629.72;5058443;28;20237;-68
2021/04/13 07:11:49;;;;;;;8.20;7.50;;;;;;;2.17;88.51;96634.94;5050876;28;20229;-69
2021/04/13 07:14:23;;;;;;;8.73;7.93;;;;;;;2.24;88.65;96631.78;5054927;28;20304;-67
2021/04/13 07:16:55;;;;;;;10.00;7.57;;;;;;;2.43;87.79;96623.50;5047952;28;20209;-67
2021/04/13 07:19:26;;;;;;;6.87;6.43;;;;;;;2.41;87.05;96634.97;5056870;28;20218;-68
2021/04/13 07:22:02;;;;;;;7.80;7.13;;;;;;;2.24;87.27;96621.38;5048994;28;20276;-68
2021/04/13 07:24:38;;;;;;;6.43;5.93;;;;;;;2.46;87.18;96628.47;5046662;28;20590;-67
2021/04/13 07:27:11;;;;;;;7.17;6.07;;;;;;;2.66;86.58;96634.03;5049305;28;20272;-69
2021/04/13 07:29:43;;;;;;;6.73;6.13;;;;;;;2.90;86.48;96627.03;5058712;28;23167;-68
2021/04/13 07:32:13;;;;;;;8.80;6.20;;;;;;;3.18;85.91;96631.03;5053557;28;20280;-68
2021/04/13 07:34:42;;;;;;;6.97;6.40;;;;;;;3.42;84.95;96638.78;5055695;28;20232;-68
2021/04/13 07:37:16;;;;;;;7.20;6.67;;;;;;;3.73;83.99;96632.06;5059019;28;20332;-68
2021/04/13 07:39:46;;;;;;;6.13;5.63;;;;;;;4.05;83.10;96637.41;5056602;28;20245;-68
2021/04/13 07:42:20;;;;;;;6.13;5.63;;;;;;;4.39;81.72;96629.53;5057715;28;20309;-68
2021/04/13 07:45:04;;;;;;;6.10;5.60;;;;;;;4.79;80.37;96628.00;5057735;28;20921;-68
2021/04/13 07:48:00;;;;;;;5.83;5.33;;;;;;;4.81;78.28;96626.09;5053354;28;20223;-67
2021/04/13 07:50:37;;;;;;;4.83;4.53;;;;;;;4.96;78.31;96616.16;5055706;28;20311;-67
2021/04/13 07:53:16;;;;;;;4.07;3.87;;;;;;;5.07;75.79;96625.75;5050269;28;20260;-68
2021/04/13 07:55:53;;;;;;;3.07;2.87;;;;;;;5.17;75.91;96620.59;5050214;28;20221;-68
2021/04/13 07:58:33;;;;;;;4.83;4.43;;;;;;;5.34;74.59;96623.47;5053486;28;20229;-68
2021/04/13 08:01:00;;;;;;;3.47;3.17;;;;;;;5.44;74.67;96613.06;5060666;28;22249;-68
2021/04/13 08:03:31;;;;;;;4.13;3.87;;;;;;;5.57;74.65;96613.66;5053289;28;20286;-68
2021/04/13 08:06:01;;;;;;;5.23;4.73;;;;;;;5.61;72.64;96614.25;5052343;28;20246;-68
2021/04/13 08:08:31;;;;;;;3.87;3.67;;;;;;;5.59;73.13;96618.81;5049971;28;20284;-68
2021/04/13 08:11:10;;;;;;;4.40;4.10;;;;;;;5.89;73.06;96618.81;5054705;28;20970;-68
2021/04/13 08:13:39;;;;;;;4.93;4.43;;;;;;;6.18;73.02;96615.50;5056165;28;20232;-68
2021/04/13 08:16:07;;;;;;;3.50;3.30;;;;;;;6.35;71.79;96616.66;5049115;28;20223;-67
2021/04/13 08:18:38;;;;;;;3.53;3.33;;;;;;;6.54;69.70;96612.28;5057643;28;20236;-67
2021/04/13 08:21:32;;;;;;;4.53;4.13;;;;;;;6.32;70.19;96619.53;5055243;28;20253;-68
2021/04/13 08:24:00;;;;;;;4.33;3.77;;;;;;;6.32;71.04;96620.38;5034460;28;20218;-68
2021/04/13 08:26:43;;;;;;;3.67;3.37;;;;;;;6.22;69.53;96622.13;5060991;28;20288;-69
2021/04/13 08:29:18;;;;;;;2.27;2.07;;;;;;;6.16;69.31;96631.34;5052343;28;22531;-68
2021/04/13 08:34:53;;;;;;;3.80;3.50;;;;;;;5.60;70.86;96629.13;5051790;28;20222;-68
2021/04/13 08:37:31;;;;;;;5.10;4.70;;;;;;;5.62;70.32;96626.38;5043248;28;20690;-68
2021/04/13 08:40:25;;;;;;;4.30;4.03;;;;;;;6.12;70.88;96629.13;5050473;28;20714;-66
2021/04/13 08:42:59;;;;;;;5.57;5.17;;;;;;;6.52;70.63;96629.94;5052989;28;20230;-66
2021/04/13 08:45:34;;;;;;;3.63;3.40;;;;;;;6.79;69.61;96625.84;5051572;28;20213;-68
2021/04/13 08:48:03;;;;;;;4.37;4.07;;;;;;;6.67;67.16;96624.28;5059713;28;20653;-68
2021/04/13 08:50:41;;;;;;;5.70;5.13;;;;;;;6.68;67.23;96631.22;5049735;28;20249;-68
2021/04/13 08:53:10;;;;;;;4.37;4.17;;;;;;;6.91;70.07;96622.09;5052336;28;20642;-69
2021/04/13 08:55:47;;;;;;;5.40;5.10;;;;;;;6.90;67.88;96619.63;5050385;28;20272;-68
2021/04/13 08:58:29;;;;;;;5.43;3.83;;;;;;;6.65;64.82;96626.22;5051144;28;21095;-69
2021/04/13 09:00:58;;;;;;;4.30;3.93;;;;;;;6.18;65.52;96628.59;5050285;28;20313;-68
2021/04/13 09:03:26;;;;;;;3.17;2.97;;;;;;;6.54;66.92;96624.56;5054930;28;20214;-68
2021/04/13 09:06:12;;;;;;;4.27;3.97;;;;;;;6.82;67.99;96623.75;5058582;28;20250;-68
2021/04/13 09:08:53;;;;;;;3.57;3.37;;;;;;;6.87;68.02;96635.66;5046642;28;20242;-69
2021/04/13 09:11:31;;;;;;;5.57;4.90;;;;;;;7.06;68.12;96636.50;5037080;28;20238;-68
2021/04/13 09:14:05;;;;;;;4.70;4.27;;;;;;;6.98;67.83;96644.22;5053979;28;20254;-69
2021/04/13 09:16:36;;;;;;;4.43;3.60;;;;;;;6.67;67.27;96637.41;5051654;28;20217;-68
2021/04/13 09:19:08;;;;;;;5.17;4.00;;;;;;;6.30;65.82;96643.25;5051510;28;20211;-68
2021/04/13 09:21:43;;;;;;;3.90;3.60;;;;;;;6.36;68.76;96640.09;5050887;28;20660;-69
2021/04/13 09:24:15;;;;;;;4.93;4.63;;;;;;;7.36;70.66;96639.94;5045404;28;20691;-69
2021/04/13 09:27:02;;;;;;;4.53;4.17;;;;;;;7.82;68.03;96643.56;5045111;28;20300;-68
2021/04/13 09:29:34;;;;;;;3.33;3.07;;;;;;;7.83;62.95;96647.84;5048763;28;20312;-67
2021/04/13 09:32:02;;;;;;;2.60;2.50;;;;;;;7.91;63.05;96650.59;5047927;28;20235;-68
2021/04/13 09:35:04;;;;;;;3.47;3.27;;;;;;;8.03;62.88;96646.81;5051936;28;20219;-68
2021/04/13 09:37:54;;;;;;;3.93;3.73;;;;;;;8.08;61.70;96644.59;5052043;28;20244;-67
2021/04/13 09:40:34;;;;;;;4.00;3.80;;;;;;;8.27;61.20;96647.16;5045686;28;20328;-68
2021/04/13 09:43:37;;;;;;;3.90;3.60;;;;;;;8.48;61.04;96635.56;5054025;28;20224;-68
2021/04/13 09:46:25;;;;;;;2.77;2.67;;;;;;;8.44;60.59;96640.31;5052704;28;20228;-68
2021/04/13 09:49:13;;;;;;;2.50;2.30;;;;;;;8.44;60.70;96636.88;5049886;28;20218;-69
2021/04/13 09:52:04;;;;;;;3.10;2.90;;;;;;;8.52;58.73;96629.06;5046189;28;20253;-69
2021/04/13 09:54:33;;;;;;;2.93;2.73;;;;;;;8.78;58.70;96632.66;5051904;28;20284;-68
2021/04/13 09:57:39;;;;;;;2.53;2.43;;;;;;;9.21;55.88;96625.78;5053282;28;20627;-69
2021/04/13 10:00:42;;;;;;;2.80;2.60;;;;;;;9.83;55.36;96618.69;5040995;28;20235;-68
2021/04/13 10:03:34;;;;;;;3.20;2.97;;;;;;;10.37;50.72;96611.41;5041843;28;20488;-69
2021/04/13 10:06:02;;;;;;;3.27;2.60;;;;;;;11.00;51.94;96607.44;5051398;28;20226;-68
2021/04/13 10:08:35;;;;;;;3.23;2.70;;;;;;;11.18;48.52;96609.94;5046215;28;20233;-69
2021/04/13 10:11:26;;;;;;;2.43;2.33;;;;;;;11.42;49.51;96609.94;5052079;28;20231;-69
2021/04/13 10:14:30;;;;;;;2.50;2.40;;;;;;;11.67;51.25;96608.94;5044065;28;20682;-67
2021/04/13 10:17:13;;;;;;;4.07;2.30;;;;;;;11.06;52.95;96607.63;5051556;28;20277;-68
2021/04/13 10:19:56;;;;;;;2.37;2.07;;;;;;;10.11;54.37;96619.31;5052963;28;20225;-68
2021/04/13 10:22:40;;;;;;;3.83;3.30;;;;;;;8.13;59.40;96631.00;5053173;28;21331;-66
2021/04/13 10:26:05;;;;;;;2.77;2.60;;;;;;;7.55;60.79;96624.13;5049925;28;20734;-68
2021/04/13 10:29:11;;;;;;;2.80;2.70;;;;;;;7.18;60.54;96628.47;5050234;28;20759;-69
2021/04/13 10:32:29;;;;;;;2.70;2.50;;;;;;;6.96;58.27;96619.91;5064146;28;20230;-68
2021/04/13 10:35:20;;;;;;;4.20;3.00;;;;;;;6.61;62.73;96614.34;5054597;28;20218;-68
2021/04/13 10:38:09;;;;;;;2.60;2.50;;;;;;;7.15;61.35;96618.25;5042810;28;20293;-68
2021/04/13 10:41:23;;;;;;;3.73;3.53;;;;;;;7.96;58.65;96609.78;5048811;28;20247;-68
2021/04/13 10:44:25;;;;;;;7.07;4.77;;;;;;;8.62;56.64;96605.31;5042691;28;20256;-67
2021/04/13 10:47:01;;;;;;;2.97;2.77;;;;;;;9.80;57.72;96602.38;5043959;28;20225;-68
2021/04/13 10:49:55;;;;;;;3.73;3.20;;;;;;;10.83;51.20;96598.66;5047503;28;20222;-67
2021/04/13 10:52:50;;;;;;;2.47;2.37;;;;;;;12.25;49.19;96588.47;5048914;28;20371;-68
2021/04/13 10:55:30;;;;;;;3.10;2.90;;;;;;;11.77;49.18;96594.69;5044330;28;20331;-67
2021/04/13 10:58:46;;;;;;;3.93;3.10;;;;;;;11.30;52.72;96598.03;5051073;28;20576;-69
2021/04/13 11:01:58;;;;;;;4.03;3.73;;;;;;;10.80;58.26;96599.00;5048864;28;20777;-67
2021/04/13 11:05:08;;;;;;;3.07;2.87;;;;;;;10.10;56.31;96630.03;5063596;28;20707;-69
2021/04/13 11:08:13;;;;;;;2.43;2.33;;;;;;;9.53;57.15;96627.06;5047717;28;20358;-68
2021/04/13 11:11:10;;;;;;;2.17;2.07;;;;;;;9.36;56.32;96608.47;5049320;28;20307;-68
2021/04/13 11:14:10;;;;;;;2.60;2.00;;;;;;;8.91;54.94;96600.69;5049852;28;20240;-68
2021/04/13 11:17:21;;;;;;;3.43;2.43;;;;;;;8.59;56.33;96601.16;5048675;28;20219;-68
2021/04/13 11:20:08;;;;;;;2.50;2.33;;;;;;;7.99;55.81;96598.97;5047605;28;20231;-68
2021/04/13 11:23:31;;;;;;;2.70;2.50;;;;;;;7.32;56.50;96601.81;5050483;28;20705;-68
2021/04/13 11:26:39;;;;;;;2.67;2.53;;;;;;;7.42;58.06;96589.47;5044458;28;20712;-69
2021/04/13 11:29:41;;;;;;;2.10;2.00;;;;;;;8.03;53.74;96573.22;5043332;28;20217;-68
2021/04/13 11:32:40;;;;;;;2.80;2.60;;;;;;;8.58;53.60;96565.31;5049646;28;20447;-67
2021/04/13 11:35:21;;;;;;;2.40;2.30;;;;;;;9.49;52.31;96568.53;5047678;28;20227;-69
2021/04/13 11:38:05;;;;;;;2.63;2.23;;;;;;;10.11;51.78;96555.22;5047796;28;20249;-69
2021/04/13 11:41:06;;;;;;;3.13;3.03;;;;;;;10.79;51.77;96552.47;5048965;28;20240;-69
2021/04/13 11:43:38;;;;;;;3.00;2.70;;;;;;;11.17;50.54;96555.47;5052564;28;21303;-69
2021/04/13 11:46:11;;;;;;;3.67;3.47;;;;;;;11.54;45.68;96550.47;5047681;28;20328;-69
2021/04/13 11:48:45;;;;;;;3.07;2.93;;;;;;;11.77;46.50;96552.38;5052541;28;20786;-69
2021/04/13 11:51:19;;;;;;;4.27;3.87;;;;;;;11.20;46.30;96547.19;5055422;28;20226;-68
2021/04/13 11:53:49;;;;;;;2.10;2.00;;;;;;;11.06;49.16;96544.25;5048331;28;20313;-68
2021/04/13 11:56:34;;;;;;;2.83;2.63;;;;;;;11.33;48.21;96550.16;5052805;28;20338;-69
2021/04/13 11:59:24;;;;;;;2.40;2.07;;;;;;;11.45;50.48;96554.13;5044473;28;20450;-69
2021/04/13 12:01:56;;;;;;;3.07;2.87;;;;;;;10.69;52.65;96552.59;5044700;28;20292;-69
2021/04/13 12:04:26;;;;;;;4.83;3.97;;;;;;;9.55;57.03;96551.31;5041471;28;20688;-69
2021/04/13 12:06:57;;;;;;;3.27;3.07;;;;;;;8.77;58.84;96562.53;5048387;28;20240;-69
2021/04/13 12:09:38;;;;;;;3.37;3.17;;;;;;;8.12;62.58;96564.44;5042396;28;20288;-69
2021/04/13 12:12:06;;;;;;;3.63;3.43;;;;;;;7.79;63.59;96563.25;5045321;28;20249;-68
2021/04/13 12:14:41;;;;;;;3.07;2.87;;;;;;;7.54;62.67;96561.25;5054424;28;20259;-68
2021/04/13 12:17:32;;;;;;;4.90;4.60;;;;;;;7.25;61.57;96566.56;5056381;28;20223;-68
2021/04/13 12:20:38;;;;;;;3.80;3.60;;;;;;;7.18;63.13;96560.22;5050875;28;20220;-67